createdAt,value
2023-03-22T00:00:17.663Z,15.20
2023-03-22T00:02:44.725Z,16.45
2023-03-22T00:05:11.532Z,14.68
2023-03-22T00:07:38.560Z,17.63
2023-03-22T00:10:06.340Z,16.02
2023-03-22T00:12:33.162Z,17.25
2023-03-22T00:15:00.387Z,19.55
2023-03-22T00:17:27.339Z,19.27
2023-03-22T00:19:58.547Z,22.35
2023-03-22T00:22:25.839Z,18.75
2023-03-22T00:24:52.628Z,21.15
2023-03-22T00:27:19.570Z,21.05
2023-03-22T00:29:46.466Z,19.20
2023-03-22T00:32:13.348Z,20.45
2023-03-22T00:34:40.413Z,26.30
2023-03-22T00:37:08.213Z,19.55
2023-03-22T00:39:35.186Z,23.42
2023-03-22T00:42:05.057Z,21.95
2023-03-22T00:44:32.525Z,23.67
2023-03-22T00:46:59.352Z,23.27
2023-03-22T00:49:27.361Z,20.38
2023-03-22T00:51:54.962Z,19.33
2023-03-22T00:54:21.874Z,22.40
2023-03-22T00:56:50.032Z,24.30
2023-03-22T00:59:17.319Z,27.75
2023-03-22T01:01:44.348Z,31.73
2023-03-22T01:04:15.559Z,37.25
2023-03-22T01:06:42.541Z,33.63
2023-03-22T01:09:15.401Z,35.05
2023-03-22T01:11:43.638Z,34.05
2023-03-22T01:14:14.078Z,32.35
2023-03-22T01:16:41.112Z,30.88
2023-03-22T01:19:08.690Z,25.75
2023-03-22T01:21:35.704Z,27.05
2023-03-22T01:24:02.941Z,33.45
2023-03-22T01:26:29.847Z,29.35
2023-03-22T01:28:57.609Z,35.08
2023-03-22T01:31:24.965Z,31.25
2023-03-22T01:33:51.786Z,38.28
2023-03-22T01:36:20.589Z,40.60
2023-03-22T01:38:47.393Z,45.25
2023-03-22T01:41:17.215Z,50.65
2023-03-22T01:43:44.746Z,48.35
2023-03-22T01:46:12.219Z,53.63
2023-03-22T01:48:46.077Z,58.15
2023-03-22T01:51:24.308Z,59.30
2023-03-22T01:54:18.667Z,53.45
2023-03-22T01:56:47.310Z,54.75
2023-03-22T01:59:22.954Z,55.08
2023-03-22T02:02:08.140Z,51.78
2023-03-22T02:04:39.383Z,57.63
2023-03-22T02:07:15.387Z,49.80
2023-03-22T02:09:44.111Z,48.67
2023-03-22T02:12:50.823Z,51.40
2023-03-22T02:15:43.629Z,48.10
2023-03-22T02:19:00.758Z,51.20
2023-03-22T02:22:03.229Z,50.42
2023-03-22T02:24:32.973Z,51.92
2023-03-22T02:27:18.664Z,51.60
2023-03-22T02:30:09.512Z,51.08
2023-03-22T02:32:36.739Z,51.13
2023-03-22T02:35:39.090Z,53.00
2023-03-22T02:38:17.684Z,50.55
2023-03-22T02:40:44.521Z,52.33
2023-03-22T02:43:16.985Z,57.13
2023-03-22T02:46:01.420Z,50.97
2023-03-22T02:48:35.119Z,50.00
2023-03-22T02:51:18.197Z,50.78
2023-03-22T02:53:54.034Z,50.20
2023-03-22T02:56:36.191Z,50.92
2023-03-22T02:59:06.333Z,48.45
2023-03-22T03:04:24.751Z,56.72
2023-03-22T03:06:54.356Z,51.95
2023-03-22T03:09:21.877Z,59.45
2023-03-22T03:11:52.028Z,61.85
2023-03-22T03:14:27.015Z,57.83
2023-03-22T03:17:06.887Z,63.75
2023-03-22T03:19:46.006Z,65.78
2023-03-22T03:22:47.466Z,70.07
2023-03-22T03:25:27.289Z,70.80
2023-03-22T03:28:11.561Z,66.22
2023-03-22T03:30:48.217Z,72.18
2023-03-22T03:33:18.931Z,62.40
2023-03-22T03:36:01.214Z,66.63
2023-03-22T03:38:32.003Z,63.88
2023-03-22T03:41:10.028Z,59.70
2023-03-22T03:43:37.645Z,56.15
2023-03-22T03:46:05.422Z,56.92
2023-03-22T03:48:36.053Z,60.65
2023-03-22T03:51:03.541Z,57.40
2023-03-22T03:53:31.313Z,56.88
2023-03-22T03:55:58.374Z,57.75
2023-03-22T03:58:30.549Z,55.05
2023-03-22T04:00:57.454Z,60.97
2023-03-22T04:03:50.899Z,60.08
2023-03-22T04:06:40.514Z,48.90
2023-03-22T04:09:14.709Z,50.30
2023-03-22T04:11:45.396Z,52.15
2023-03-22T04:14:13.975Z,52.97
2023-03-22T04:16:40.922Z,51.50
2023-03-22T04:19:11.483Z,51.67
2023-03-22T04:21:39.257Z,50.13
2023-03-22T04:24:07.559Z,54.05
2023-03-22T04:26:37.655Z,50.85
2023-03-22T04:32:12.524Z,56.17
2023-03-22T04:34:43.180Z,53.45
2023-03-22T04:37:13.934Z,53.45
2023-03-22T04:39:54.607Z,48.05
2023-03-22T04:42:51.542Z,56.33
2023-03-22T04:45:29.374Z,51.80
2023-03-22T04:48:00.513Z,48.97
2023-03-22T04:50:28.395Z,53.80
2023-03-22T04:52:59.794Z,48.75
2023-03-22T04:55:27.772Z,43.88
2023-03-22T04:57:54.950Z,49.85
2023-03-22T05:00:24.180Z,49.40
2023-03-22T05:02:52.231Z,46.10
2023-03-22T05:05:53.577Z,48.55
2023-03-22T05:08:27.278Z,45.65
2023-03-22T05:10:55.908Z,47.10
2023-03-22T05:13:26.559Z,49.50
2023-03-22T05:15:54.293Z,46.53
2023-03-22T05:18:28.812Z,48.83
2023-03-22T05:20:57.532Z,43.08
2023-03-22T05:23:25.017Z,46.72
2023-03-22T05:25:58.419Z,46.38
2023-03-22T05:28:39.881Z,45.95
2023-03-22T05:31:28.738Z,54.30
2023-03-22T05:34:01.745Z,45.80
2023-03-22T05:36:30.409Z,51.65
2023-03-22T05:39:16.121Z,49.97
2023-03-22T05:41:44.163Z,46.70
2023-03-22T05:44:11.344Z,48.95
2023-03-22T05:46:44.743Z,48.03
2023-03-22T05:49:32.457Z,46.05
2023-03-22T05:52:04.519Z,47.17
2023-03-22T05:54:45.751Z,49.88
2023-03-22T05:57:12.741Z,48.28
2023-03-22T05:59:39.550Z,47.33
2023-03-22T06:02:09.147Z,44.15
2023-03-22T06:04:37.024Z,45.03
2023-03-22T06:07:10.443Z,40.83
2023-03-22T06:09:51.399Z,37.53
2023-03-22T06:12:24.857Z,39.00
2023-03-22T06:15:18.282Z,32.65
2023-03-22T06:18:21.079Z,33.53
2023-03-22T06:20:56.329Z,37.42
2023-03-22T06:23:24.455Z,40.92
2023-03-22T06:25:52.081Z,41.90
2023-03-22T06:28:19.447Z,41.75
2023-03-22T06:30:51.944Z,46.67
2023-03-22T06:33:38.201Z,53.90
2023-03-22T06:36:16.489Z,47.38
2023-03-22T06:39:05.639Z,45.75
2023-03-22T06:41:33.186Z,46.40
2023-03-22T06:44:01.266Z,52.35
2023-03-22T06:46:40.471Z,56.15
2023-03-22T06:49:17.188Z,52.33
2023-03-22T06:51:44.482Z,49.75
2023-03-22T06:54:13.424Z,50.97
2023-03-22T06:56:41.083Z,52.25
2023-03-22T06:59:08.247Z,58.33
2023-03-22T07:01:35.395Z,50.03
2023-03-22T07:04:02.446Z,47.47
2023-03-22T07:06:30.701Z,47.10
2023-03-22T07:08:57.598Z,51.90
2023-03-22T07:11:29.889Z,50.25
2023-03-22T07:13:59.460Z,76.47
2023-03-22T07:16:32.978Z,52.03
2023-03-22T07:19:02.173Z,50.70
2023-03-22T07:21:29.057Z,46.65
2023-03-22T07:23:59.802Z,45.67
2023-03-22T07:26:30.754Z,43.42
2023-03-22T07:31:35.969Z,45.13
2023-03-22T07:34:05.873Z,52.10
2023-03-22T07:36:44.480Z,49.58
2023-03-22T07:39:12.715Z,48.88
2023-03-22T07:41:44.072Z,44.60
2023-03-22T08:55:08.459Z,48.23
2023-03-22T08:57:50.566Z,39.83
2023-03-22T09:00:20.598Z,38.72
2023-03-22T09:03:01.275Z,43.97
2023-03-22T09:05:28.219Z,42.90
2023-03-22T09:07:56.611Z,39.75
2023-03-22T09:10:33.460Z,46.53
2023-03-22T09:13:00.736Z,39.72
2023-03-22T09:15:27.696Z,40.42
2023-03-22T09:18:12.480Z,43.10
2023-03-22T09:20:40.548Z,32.80
2023-03-22T09:23:08.322Z,33.67
2023-03-22T09:25:35.507Z,28.50
2023-03-22T09:28:04.241Z,30.48
2023-03-22T09:30:31.306Z,25.98
2023-03-22T09:32:58.303Z,31.30
2023-03-22T09:35:25.201Z,33.85
2023-03-22T09:38:00.017Z,29.42
2023-03-22T09:40:31.966Z,26.27
2023-03-22T09:43:03.231Z,28.80
2023-03-22T09:45:38.748Z,30.42
2023-03-22T09:48:21.890Z,36.45
2023-03-22T09:50:52.939Z,36.80
2023-03-22T09:53:21.353Z,34.13
2023-03-22T09:55:54.600Z,32.97
2023-03-22T09:58:43.146Z,31.85
2023-03-22T10:01:35.522Z,33.13
2023-03-22T10:04:14.687Z,31.13
2023-03-22T10:06:49.669Z,22.80
2023-03-22T10:09:42.516Z,19.85
2023-03-22T10:12:34.988Z,21.17
2023-03-22T10:15:12.382Z,20.08
2023-03-22T10:17:42.296Z,20.10
2023-03-22T10:20:33.354Z,21.27
2023-03-22T10:23:03.489Z,16.52
2023-03-22T10:25:39.750Z,16.38
2023-03-22T10:28:39.832Z,15.55
2023-03-22T10:31:13.289Z,13.93
2023-03-22T10:33:50.582Z,14.35
2023-03-22T10:36:21.277Z,12.18
2023-03-22T10:38:55.775Z,12.25
2023-03-22T10:41:25.947Z,11.45
2023-03-22T10:43:56.775Z,10.25
2023-03-22T10:46:26.627Z,12.60
2023-03-22T10:48:59.675Z,10.35
2023-03-22T10:51:44.976Z,11.10
2023-03-22T10:54:17.990Z,11.00
2023-03-22T10:56:46.180Z,13.13
2023-03-22T10:59:49.170Z,11.10
2023-03-22T11:02:22.392Z,10.40
2023-03-22T11:04:53.124Z,9.60
2023-03-22T11:07:45.909Z,9.85
2023-03-22T11:10:18.952Z,9.45
2023-03-22T11:12:55.482Z,10.52
2023-03-22T11:15:34.768Z,9.48
2023-03-22T11:18:16.049Z,9.95
2023-03-22T11:20:57.262Z,9.82
2023-03-22T11:23:25.132Z,9.95
2023-03-22T11:25:55.793Z,9.30
2023-03-22T11:28:28.020Z,11.43
2023-03-22T11:31:03.095Z,10.07
2023-03-22T11:33:30.777Z,11.43
2023-03-22T11:36:03.687Z,8.50
2023-03-22T11:38:36.757Z,8.73
2023-03-22T11:41:21.171Z,9.02
2023-03-22T11:43:53.915Z,9.48
2023-03-22T11:46:21.863Z,8.27
2023-03-22T11:48:51.992Z,8.90
2023-03-22T11:51:35.329Z,8.73
2023-03-22T11:54:20.929Z,8.35
2023-03-22T11:56:49.383Z,8.05
2023-03-22T11:59:21.464Z,7.85
2023-03-22T12:01:58.789Z,7.88
2023-03-22T12:04:29.822Z,8.07
2023-03-22T12:07:00.673Z,7.82
2023-03-22T12:10:11.218Z,8.02
2023-03-22T12:12:49.607Z,8.27
2023-03-22T12:15:22.518Z,7.65
2023-03-22T12:18:04.929Z,7.68
2023-03-22T12:20:50.719Z,7.75
2023-03-22T12:23:28.138Z,7.82
2023-03-22T12:26:05.223Z,6.97
2023-03-22T12:28:42.734Z,7.18
2023-03-22T12:31:21.947Z,7.50
2023-03-22T12:33:52.769Z,8.65
2023-03-22T12:36:38.303Z,7.47
2023-03-22T12:39:08.392Z,6.30
2023-03-22T12:41:42.702Z,8.00
2023-03-22T12:44:12.709Z,7.60
2023-03-22T12:46:51.543Z,5.50
2023-03-22T12:49:21.835Z,5.90
2023-03-22T12:51:51.753Z,7.45
2023-03-22T12:54:22.373Z,6.72
2023-03-22T12:56:51.370Z,6.57
2023-03-22T12:59:23.730Z,5.43
2023-03-22T13:02:01.308Z,5.75
2023-03-22T13:04:49.727Z,5.95
2023-03-22T13:07:31.687Z,7.05
2023-03-22T13:10:00.192Z,6.07
2023-03-22T13:12:30.815Z,6.80
2023-03-22T13:15:28.419Z,5.75
2023-03-22T13:17:59.202Z,5.95
2023-03-22T13:20:28.371Z,6.75
2023-03-22T13:22:57.487Z,7.47
2023-03-22T13:25:38.682Z,6.28
2023-03-22T13:28:23.582Z,5.72
2023-03-22T13:30:53.667Z,6.38
2023-03-22T13:33:27.270Z,5.93
2023-03-22T13:35:56.943Z,6.13
2023-03-22T13:41:08.029Z,6.28
2023-03-22T13:43:43.496Z,6.03
2023-03-22T13:46:13.299Z,5.90
2023-03-22T13:48:55.419Z,5.32
2023-03-22T13:51:25.782Z,6.00
2023-03-22T13:53:52.540Z,5.82
2023-03-22T13:56:34.025Z,5.82
2023-03-22T13:59:03.953Z,7.78
2023-03-22T14:01:36.988Z,5.40
2023-03-22T14:04:10.829Z,6.00
2023-03-22T14:06:52.644Z,4.95
2023-03-22T14:09:31.894Z,4.90
2023-03-22T14:12:20.859Z,15.82
2023-03-22T14:14:54.948Z,5.33
2023-03-22T14:17:47.729Z,5.53
2023-03-22T14:20:21.151Z,5.63
2023-03-22T14:53:16.786Z,5.47
2023-03-22T14:55:45.629Z,5.10
2023-03-22T15:03:20.409Z,6.35
2023-03-22T15:05:47.576Z,13.50
2023-03-22T15:08:20.177Z,8.73
2023-03-22T15:10:58.980Z,5.93
2023-03-22T15:13:27.031Z,6.93
2023-03-22T15:15:54.669Z,5.85
2023-03-22T15:18:24.894Z,6.00
2023-03-22T15:20:53.210Z,5.57
2023-03-22T15:23:31.756Z,7.10
2023-03-22T15:26:01.078Z,7.03
2023-03-22T15:28:31.577Z,4.97
2023-03-22T15:31:04.134Z,5.03
2023-03-22T15:33:37.633Z,7.68
2023-03-22T15:36:06.762Z,6.38
2023-03-22T15:38:46.668Z,5.53
2023-03-22T15:41:26.432Z,5.40
2023-03-22T15:44:04.819Z,5.97
2023-03-22T15:46:48.500Z,4.82
2023-03-22T15:49:19.584Z,5.30
2023-03-22T15:51:47.245Z,4.72
2023-03-22T15:54:19.913Z,6.38
2023-03-22T15:56:49.735Z,6.22
2023-03-22T15:59:31.732Z,6.60
2023-03-22T16:02:00.747Z,9.68
2023-03-22T16:04:34.753Z,8.82
2023-03-22T16:07:02.213Z,7.45
2023-03-22T16:09:29.140Z,8.43
2023-03-22T16:11:56.180Z,8.35
2023-03-22T16:14:23.203Z,9.57
2023-03-22T16:16:50.228Z,8.48
2023-03-22T16:19:17.358Z,12.48
2023-03-22T16:21:44.370Z,8.57
2023-03-22T16:24:12.831Z,9.25
2023-03-22T16:26:40.182Z,11.50
2023-03-22T16:29:07.134Z,8.27
2023-03-22T16:31:34.110Z,7.13
2023-03-22T16:34:01.092Z,8.80
2023-03-22T16:36:28.332Z,6.90
2023-03-22T16:38:55.440Z,9.85
2023-03-22T16:41:29.430Z,6.53
2023-03-22T16:43:58.851Z,9.02
2023-03-22T16:46:28.509Z,6.25
2023-03-22T16:48:55.553Z,7.75
2023-03-22T16:51:30.802Z,6.68
2023-03-22T16:53:58.999Z,8.15
2023-03-22T16:56:30.802Z,9.25
2023-03-22T16:58:57.792Z,17.58
2023-03-22T17:01:26.093Z,10.18
2023-03-22T17:03:53.452Z,9.48
2023-03-22T17:06:24.077Z,14.50
2023-03-22T17:08:55.333Z,11.15
2023-03-22T17:11:29.755Z,10.68
2023-03-22T17:13:59.066Z,9.43
2023-03-22T17:16:27.790Z,10.63
2023-03-22T17:18:57.248Z,13.65
2023-03-22T17:21:24.343Z,11.90
2023-03-22T17:23:51.619Z,9.13
2023-03-22T17:26:18.766Z,11.77
2023-03-22T17:28:48.064Z,15.30
2023-03-22T17:31:17.543Z,11.25
2023-03-22T17:33:45.295Z,13.95
2023-03-22T17:36:13.509Z,15.48
2023-03-22T17:38:53.277Z,15.15
2023-03-22T17:41:27.842Z,14.00
2023-03-22T17:43:54.711Z,10.18
2023-03-22T17:51:18.484Z,14.50
2023-03-22T17:54:35.497Z,11.15
2023-03-22T17:57:01.054Z,12.07
2023-03-22T17:59:38.134Z,15.23
2023-03-22T18:02:50.931Z,10.57
2023-03-22T18:05:28.149Z,12.07
2023-03-22T18:08:27.266Z,14.52
2023-03-22T18:10:56.256Z,13.48
2023-03-22T18:13:28.140Z,11.77
2023-03-22T18:16:03.389Z,12.10
2023-03-22T18:18:34.158Z,17.70
2023-03-22T18:21:42.444Z,14.90
2023-03-22T18:24:25.133Z,12.32
2023-03-22T18:30:12.341Z,10.45
2023-03-22T18:33:03.830Z,11.25
2023-03-22T18:35:54.150Z,14.90
2023-03-22T18:39:02.984Z,10.15
2023-03-22T18:41:46.218Z,10.45
2023-03-22T18:44:26.470Z,11.18
2023-03-22T18:47:09.356Z,10.73
2023-03-22T18:49:58.625Z,13.55
2023-03-22T18:53:17.873Z,13.55
2023-03-22T18:55:52.241Z,11.98
2023-03-22T18:58:39.307Z,12.13
2023-03-22T19:01:13.063Z,21.08
2023-03-22T19:03:46.042Z,16.20
2023-03-22T19:07:01.053Z,14.20
2023-03-22T19:09:45.777Z,16.00
2023-03-22T19:12:28.522Z,11.80
2023-03-22T19:15:31.822Z,14.23
2023-03-22T19:18:32.293Z,14.10
2023-03-22T19:24:10.230Z,12.75
2023-03-22T19:26:58.488Z,12.40
2023-03-22T19:29:37.208Z,10.77
2023-03-22T19:32:04.721Z,13.68
2023-03-22T19:34:50.358Z,11.10
2023-03-22T19:37:21.340Z,9.75
2023-03-22T19:42:44.551Z,9.80
2023-03-22T19:45:26.367Z,12.68
2023-03-22T19:48:05.379Z,12.38
2023-03-22T19:50:39.079Z,14.98
2023-03-22T19:54:08.458Z,12.82
2023-03-22T19:56:18.730Z,11.95
2023-03-22T19:59:03.352Z,10.38
2023-03-22T20:01:40.222Z,10.63
2023-03-22T20:04:07.226Z,11.10
2023-03-22T20:06:55.312Z,9.63
2023-03-22T20:10:02.153Z,16.23
2023-03-22T20:12:38.917Z,9.73
2023-03-22T20:15:37.614Z,11.45
2023-03-22T20:18:09.705Z,11.40
2023-03-22T20:20:36.620Z,10.95
2023-03-22T20:23:22.284Z,8.43
2023-03-22T20:26:09.701Z,16.63
2023-03-22T20:29:02.758Z,11.85
2023-03-22T20:31:59.976Z,11.52
2023-03-22T20:35:04.697Z,12.18
2023-03-22T20:37:38.728Z,10.80
2023-03-22T20:40:12.290Z,9.57
2023-03-22T20:43:35.725Z,16.33
2023-03-22T20:46:57.255Z,12.35
2023-03-22T20:49:27.356Z,12.35
2023-03-22T20:52:03.707Z,11.63
2023-03-22T20:54:30.789Z,11.50
2023-03-22T20:56:57.899Z,10.55
2023-03-22T20:59:24.854Z,10.93
2023-03-22T21:01:53.567Z,12.38
2023-03-22T21:04:20.962Z,10.05
2023-03-22T21:06:49.120Z,10.10
2023-03-22T21:09:16.667Z,12.65
2023-03-22T21:11:43.834Z,9.90
2023-03-22T21:14:11.248Z,9.70
2023-03-22T21:16:44.063Z,9.95
2023-03-22T21:19:12.034Z,12.75
2023-03-22T21:21:40.075Z,17.83
2023-03-22T21:24:07.437Z,13.18
2023-03-22T21:26:34.492Z,10.52
2023-03-22T21:29:01.622Z,10.02
2023-03-22T21:31:28.708Z,10.30
2023-03-22T21:33:55.709Z,13.88
2023-03-22T21:36:22.640Z,10.40
2023-03-22T21:38:54.925Z,10.55
2023-03-22T21:41:24.477Z,10.30
2023-03-22T21:43:55.395Z,11.05
2023-03-22T21:46:24.218Z,9.70
2023-03-22T21:48:54.294Z,9.43
2023-03-22T21:53:56.864Z,9.55
2023-03-22T21:56:24.788Z,9.63
2023-03-22T21:58:52.330Z,11.68
2023-03-22T22:01:19.984Z,10.85
2023-03-22T22:03:48.551Z,9.23
2023-03-22T22:06:15.681Z,11.40
2023-03-22T22:08:42.636Z,11.48
2023-03-22T22:11:10.149Z,12.20
2023-03-22T22:13:38.456Z,10.82
2023-03-22T22:16:08.352Z,11.88
2023-03-22T22:18:39.232Z,10.30
2023-03-22T22:21:09.289Z,12.90
2023-03-22T22:23:41.929Z,11.02
2023-03-22T22:26:10.323Z,10.70
2023-03-22T22:28:38.599Z,15.80
2023-03-22T22:31:10.266Z,10.18
2023-03-22T22:33:39.979Z,9.65
2023-03-22T22:36:10.491Z,10.45
2023-03-22T22:38:38.884Z,9.30
2023-03-22T22:41:11.641Z,14.27
2023-03-22T22:43:38.837Z,10.75
2023-03-22T22:46:06.304Z,12.13
2023-03-22T22:48:34.121Z,9.48
2023-03-22T22:51:06.582Z,11.40
2023-03-22T22:53:34.339Z,12.90
2023-03-22T22:56:02.263Z,15.00
2023-03-22T22:58:29.578Z,15.15
2023-03-22T23:00:56.724Z,9.50
2023-03-22T23:03:26.542Z,10.90
2023-03-22T23:05:53.682Z,10.55
2023-03-22T23:08:20.719Z,10.20
2023-03-22T23:10:52.624Z,12.50
2023-03-22T23:13:20.692Z,12.05
2023-03-22T23:15:52.943Z,11.65
2023-03-22T23:18:22.880Z,12.82
2023-03-22T23:20:50.726Z,12.98
2023-03-22T23:23:20.597Z,11.77
2023-03-22T23:25:48.419Z,15.07
2023-03-22T23:28:17.627Z,12.27
2023-03-22T23:30:44.572Z,10.73
2023-03-22T23:33:12.765Z,9.95
2023-03-22T23:35:43.003Z,9.90
2023-03-22T23:38:10.860Z,12.77
2023-03-22T23:40:38.155Z,11.70
2023-03-22T23:43:05.097Z,11.75
2023-03-22T23:45:32.273Z,13.07
2023-03-22T23:47:59.302Z,16.80
2023-03-22T23:50:26.199Z,10.50
2023-03-22T23:52:53.081Z,10.60
2023-03-22T23:55:22.226Z,10.35
2023-03-22T23:57:49.124Z,9.23
